Time;durP1;ratioP1;P1;durP2;ratioP2;P2;SDS_P1;SDS_P2;PMS_P1;PMS_P2;Temp;Humidity;BMP_temperature;BMP_pressure;BME280_temperature;BME280_humidity;BME280_pressure;Samples;Min_cycle;Max_cycle;Signal;HPM_P1;HPM_P2
2021/06/06 00:00:49;;;;;;;;;;;;;;;24.62;53.61;101471.06;2096134;28;3673;-74
2021/06/06 00:01:50;;;;;;;;;;;;;;;24.63;53.60;101466.16;2097008;28;3991;-73
2021/06/06 00:02:52;;;;;;;;;;;;;;;24.61;53.63;101457.94;2096898;28;4167;-73
2021/06/06 00:03:53;;;;;;;;;;;;;;;24.62;53.58;101461.66;2096066;28;4089;-74
2021/06/06 00:04:54;;;;;;;;;;;;;;;24.62;53.49;101464.50;2095630;28;3842;-74
2021/06/06 00:05:55;;;;;;;;;;;;;;;24.62;53.54;101458.78;2097291;28;3754;-73
2021/06/06 00:06:57;;;;;;;;;;;;;;;24.61;53.57;101463.66;2096986;28;5095;-73
2021/06/06 00:07:58;;;;;;;;;;;;;;;24.62;53.44;101461.66;2097182;28;3931;-73
2021/06/06 00:09:03;;;;;;;;;;;;;;;24.62;53.44;101458.78;2096648;28;3852;-74
2021/06/06 00:10:04;;;;;;;;;;;;;;;24.62;53.42;101467.38;2096401;28;3914;-75
2021/06/06 00:11:05;;;;;;;;;;;;;;;24.62;53.56;101461.66;2096385;28;4929;-76
2021/06/06 00:12:06;;;;;;;;;;;;;;;24.62;53.52;101458.78;2095153;28;4038;-75
2021/06/06 00:13:08;;;;;;;;;;;;;;;24.62;53.43;101461.66;2096225;28;4030;-76
2021/06/06 00:14:09;;;;;;;;;;;;;;;24.62;53.54;101455.94;2094499;28;3897;-76
2021/06/06 00:15:10;;;;;;;;;;;;;;;24.63;53.55;101469.03;2094871;28;4038;-75
2021/06/06 00:16:11;;;;;;;;;;;;;;;24.62;53.46;101462.47;2096405;28;3996;-74
2021/06/06 00:17:13;;;;;;;;;;;;;;;24.62;53.49;101465.34;2096176;28;4101;-74
2021/06/06 00:18:15;;;;;;;;;;;;;;;24.63;53.49;101463.31;2096645;28;4008;-74
2021/06/06 00:19:16;;;;;;;;;;;;;;;24.62;53.52;101468.19;2096025;28;3746;-74
2021/06/06 00:20:17;;;;;;;;;;;;;;;24.64;53.63;101467.81;2096255;28;3891;-74
2021/06/06 00:21:19;;;;;;;;;;;;;;;24.62;53.59;101468.19;2096735;28;3997;-75
2021/06/06 00:22:20;;;;;;;;;;;;;;;24.62;53.56;101468.19;2095254;28;3960;-75
2021/06/06 00:23:21;;;;;;;;;;;;;;;24.62;53.52;101465.34;2096783;28;5116;-75
2021/06/06 00:24:22;;;;;;;;;;;;;;;24.63;53.45;101469.03;2096096;28;3906;-75
2021/06/06 00:25:24;;;;;;;;;;;;;;;24.64;53.55;101462.09;2095756;28;3882;-73
2021/06/06 00:26:25;;;;;;;;;;;;;;;24.62;53.63;101465.34;2095905;28;4018;-73
2021/06/06 00:27:26;;;;;;;;;;;;;;;24.64;53.59;101462.09;2097192;28;4097;-74
2021/06/06 00:28:27;;;;;;;;;;;;;;;24.63;53.56;101466.16;2096022;28;4029;-75
2021/06/06 00:29:29;;;;;;;;;;;;;;;24.63;53.59;101467.00;2096414;28;3995;-75
2021/06/06 00:30:30;;;;;;;;;;;;;;;24.64;53.56;101464.94;2095887;28;3863;-75
2021/06/06 00:31:31;;;;;;;;;;;;;;;24.62;53.47;101468.19;2097459;28;5030;-75
2021/06/06 00:32:32;;;;;;;;;;;;;;;24.63;53.51;101475.56;2097592;28;4074;-76
2021/06/06 00:33:35;;;;;;;;;;;;;;;24.63;53.69;101469.84;2089538;28;3997;-76
2021/06/06 00:34:36;;;;;;;;;;;;;;;24.61;53.58;101466.50;2088320;28;3999;-75
2021/06/06 00:35:37;;;;;;;;;;;;;;;24.63;53.64;101466.16;2097296;28;3830;-75
2021/06/06 00:36:38;;;;;;;;;;;;;;;24.64;53.65;101464.94;2097819;28;5235;-75
2021/06/06 00:37:40;;;;;;;;;;;;;;;24.63;53.52;101469.03;2097128;28;3997;-76
2021/06/06 00:38:41;;;;;;;;;;;;;;;24.61;53.54;101468.53;2097670;28;3996;-76
2021/06/06 00:39:42;;;;;;;;;;;;;;;24.64;53.62;101473.53;2097275;28;5059;-75
2021/06/06 00:40:43;;;;;;;;;;;;;;;24.63;53.63;101466.16;2098756;28;3841;-76
2021/06/06 00:41:44;;;;;;;;;;;;;;;24.63;53.54;101472.72;2097079;28;6043;-76
2021/06/06 00:42:46;;;;;;;;;;;;;;;24.63;53.61;101466.16;2097661;28;4062;-76
2021/06/06 00:43:47;;;;;;;;;;;;;;;24.63;53.53;101472.72;2098075;28;3969;-76
2021/06/06 00:44:48;;;;;;;;;;;;;;;24.63;53.50;101478.44;2096706;28;3949;-76
2021/06/06 00:45:49;;;;;;;;;;;;;;;24.63;53.53;101471.88;2095649;28;3897;-76
2021/06/06 00:46:51;;;;;;;;;;;;;;;24.63;53.55;101469.03;2096478;28;6214;-75
2021/06/06 00:47:52;;;;;;;;;;;;;;;24.63;53.51;101469.03;2096596;28;3807;-75
2021/06/06 00:48:54;;;;;;;;;;;;;;;24.63;53.56;101467.00;2096982;28;3972;-76
2021/06/06 00:49:55;;;;;;;;;;;;;;;24.64;53.49;101470.69;2098298;28;3857;-76
2021/06/06 00:50:57;;;;;;;;;;;;;;;24.63;53.47;101471.88;2097375;28;4067;-76
2021/06/06 00:51:58;;;;;;;;;;;;;;;24.63;53.42;101469.03;2098196;28;3834;-76
2021/06/06 00:52:59;;;;;;;;;;;;;;;24.62;53.44;101476.78;2097081;28;4013;-76
2021/06/06 00:54:00;;;;;;;;;;;;;;;24.63;53.49;101469.03;2097922;28;3997;-76
2021/06/06 00:55:02;;;;;;;;;;;;;;;24.63;53.50;101469.03;2097446;28;4015;-75
2021/06/06 00:56:03;;;;;;;;;;;;;;;24.63;53.48;101474.75;2097746;28;3914;-76
2021/06/06 00:57:04;;;;;;;;;;;;;;;24.62;53.42;101471.06;2098540;28;3912;-76
2021/06/06 00:58:05;;;;;;;;;;;;;;;24.63;53.51;101472.72;2096503;28;4164;-76
2021/06/06 00:59:07;;;;;;;;;;;;;;;24.63;53.51;101472.72;2096668;28;4003;-76
2021/06/06 01:00:08;;;;;;;;;;;;;;;24.63;53.38;101467.00;2097644;28;4009;-76
2021/06/06 01:01:10;;;;;;;;;;;;;;;24.63;53.56;101466.16;2096431;28;4030;-76
2021/06/06 01:02:12;;;;;;;;;;;;;;;24.63;53.42;101460.44;2097698;28;3868;-76
2021/06/06 01:03:13;;;;;;;;;;;;;;;24.63;53.47;101466.16;2097407;28;3845;-76
2021/06/06 01:04:14;;;;;;;;;;;;;;;24.63;53.39;101469.03;2096803;28;3831;-76
2021/06/06 01:05:15;;;;;;;;;;;;;;;24.62;53.46;101470.22;2096798;28;4056;-76
2021/06/06 01:06:16;;;;;;;;;;;;;;;24.63;53.39;101477.59;2097503;28;4006;-76
2021/06/06 01:07:18;;;;;;;;;;;;;;;24.63;53.44;101466.16;2097269;28;3842;-76
2021/06/06 01:08:20;;;;;;;;;;;;;;;24.63;53.45;101467.00;2094002;28;3982;-76
2021/06/06 01:09:21;;;;;;;;;;;;;;;24.64;53.54;101467.81;2096276;28;4019;-76
2021/06/06 01:10:22;;;;;;;;;;;;;;;24.63;53.37;101466.16;2095854;28;4033;-76
2021/06/06 01:11:23;;;;;;;;;;;;;;;24.63;53.39;101474.75;2097386;28;3834;-76
2021/06/06 01:12:24;;;;;;;;;;;;;;;24.63;53.39;101471.88;2098059;28;3935;-77
2021/06/06 01:13:26;;;;;;;;;;;;;;;24.63;53.45;101466.16;2093841;28;5094;-77
2021/06/06 01:14:27;;;;;;;;;;;;;;;24.63;53.36;101464.13;2096129;28;3890;-76
2021/06/06 01:15:28;;;;;;;;;;;;;;;24.63;53.42;101469.84;2097215;28;6402;-76
2021/06/06 01:16:29;;;;;;;;;;;;;;;24.63;53.31;101469.84;2095947;28;3991;-76
2021/06/06 01:17:40;;;;;;;;;;;;;;;24.63;53.27;101466.16;2097390;28;3815;-76
2021/06/06 01:19:03;;;;;;;;;;;;;;;24.63;53.34;101460.44;2074607;28;3956;-76
2021/06/06 01:20:04;;;;;;;;;;;;;;;24.63;53.37;101466.16;2086892;28;4056;-76
2021/06/06 01:21:05;;;;;;;;;;;;;;;24.63;53.36;101463.31;2096173;28;3872;-76
2021/06/06 01:22:06;;;;;;;;;;;;;;;24.64;53.40;101467.81;2097346;28;4045;-76
2021/06/06 01:23:08;;;;;;;;;;;;;;;24.63;53.29;101461.28;2096965;28;4108;-77
2021/06/06 01:24:09;;;;;;;;;;;;;;;24.63;53.39;101469.84;2097659;28;4019;-77
2021/06/06 01:25:10;;;;;;;;;;;;;;;24.63;53.30;101469.84;2097821;28;4030;-77
2021/06/06 01:26:11;;;;;;;;;;;;;;;24.63;53.38;101463.31;2097117;28;3999;-76
2021/06/06 01:27:13;;;;;;;;;;;;;;;24.64;53.30;101467.81;2094431;28;3839;-76
2021/06/06 01:28:15;;;;;;;;;;;;;;;24.64;53.36;101462.09;2095305;28;4038;-76
2021/06/06 01:29:17;;;;;;;;;;;;;;;24.63;53.32;101466.16;2095103;28;4052;-76
2021/06/06 01:30:18;;;;;;;;;;;;;;;24.63;53.39;101461.28;2095063;28;3854;-76
2021/06/06 01:31:19;;;;;;;;;;;;;;;24.63;53.38;101469.03;2093797;28;4044;-77
2021/06/06 01:32:21;;;;;;;;;;;;;;;24.64;53.36;101462.91;2094238;28;3851;-76
2021/06/06 01:33:22;;;;;;;;;;;;;;;24.64;53.32;101470.69;2096149;28;3919;-76
2021/06/06 01:34:23;;;;;;;;;;;;;;;24.64;53.32;101462.09;2096860;28;3819;-76
2021/06/06 01:35:24;;;;;;;;;;;;;;;24.64;53.37;101467.81;2097595;28;3981;-76
2021/06/06 01:36:26;;;;;;;;;;;;;;;24.64;53.37;101467.81;2097294;28;4125;-76
2021/06/06 01:37:27;;;;;;;;;;;;;;;24.63;53.40;101461.28;2097488;28;4023;-75
2021/06/06 01:38:28;;;;;;;;;;;;;;;24.63;53.29;101463.31;2097778;28;3969;-75
2021/06/06 01:39:29;;;;;;;;;;;;;;;24.63;53.34;101461.28;2096598;28;3972;-76
2021/06/06 01:40:30;;;;;;;;;;;;;;;24.63;53.36;101466.16;2096727;28;3973;-76
2021/06/06 01:41:35;;;;;;;;;;;;;;;24.63;53.40;101460.44;2096140;28;4088;-76
2021/06/06 01:42:37;;;;;;;;;;;;;;;24.63;53.28;101466.16;2097310;28;3844;-76
2021/06/06 01:43:38;;;;;;;;;;;;;;;24.63;53.29;101467.00;2095644;28;4012;-77
2021/06/06 01:44:39;;;;;;;;;;;;;;;24.63;53.42;101461.28;2094532;28;3760;-76
2021/06/06 01:45:41;;;;;;;;;;;;;;;24.64;53.44;101462.09;2095502;28;3865;-76
2021/06/06 01:46:42;;;;;;;;;;;;;;;24.64;53.35;101459.22;2096687;28;3979;-76
2021/06/06 01:47:43;;;;;;;;;;;;;;;24.64;53.56;101462.09;2096827;28;3791;-76
2021/06/06 01:48:44;;;;;;;;;;;;;;;24.64;53.64;101462.91;2097357;28;5084;-76
2021/06/06 01:49:45;;;;;;;;;;;;;;;24.65;53.63;101466.63;2094708;28;3995;-76
2021/06/06 01:50:47;;;;;;;;;;;;;;;24.65;53.67;101460.91;2097486;28;3788;-76
2021/06/06 01:51:48;;;;;;;;;;;;;;;24.65;53.66;101458.06;2097640;28;3954;-76
2021/06/06 01:52:49;;;;;;;;;;;;;;;24.65;53.66;101463.78;2097071;28;3838;-75
2021/06/06 01:53:50;;;;;;;;;;;;;;;24.64;53.63;101462.09;2093858;28;4001;-75
2021/06/06 01:54:52;;;;;;;;;;;;;;;24.65;53.48;101463.78;2094200;28;3893;-75
2021/06/06 01:55:53;;;;;;;;;;;;;;;24.65;53.54;101467.47;2096394;28;4134;-74
2021/06/06 01:56:54;;;;;;;;;;;;;;;24.65;53.60;101466.63;2096894;28;3916;-74
2021/06/06 01:57:56;;;;;;;;;;;;;;;24.65;53.67;101475.22;2097768;28;3966;-73
2021/06/06 01:58:57;;;;;;;;;;;;;;;24.65;53.66;101472.38;2097580;28;3900;-74
2021/06/06 01:59:59;;;;;;;;;;;;;;;24.66;53.57;101476.88;2095703;28;3988;-74
2021/06/06 02:01:00;;;;;;;;;;;;;;;24.65;53.62;101469.50;2092993;28;4067;-74
2021/06/06 02:02:01;;;;;;;;;;;;;;;24.65;53.56;101475.22;2097233;28;3903;-74
2021/06/06 02:03:02;;;;;;;;;;;;;;;24.65;53.64;101466.63;2095943;28;3887;-74
2021/06/06 02:04:04;;;;;;;;;;;;;;;24.65;53.58;101472.38;2096833;28;3977;-74
2021/06/06 02:05:05;;;;;;;;;;;;;;;24.65;53.56;101475.22;2097444;28;4026;-74
2021/06/06 02:06:06;;;;;;;;;;;;;;;24.65;53.72;101475.22;2098182;28;4033;-74
2021/06/06 02:07:07;;;;;;;;;;;;;;;24.65;53.50;101470.31;2096201;28;3849;-75
2021/06/06 02:08:09;;;;;;;;;;;;;;;24.65;53.66;101469.50;2096758;28;3891;-75
2021/06/06 02:09:10;;;;;;;;;;;;;;;24.65;53.51;101473.19;2096748;28;4136;-75
2021/06/06 02:10:11;;;;;;;;;;;;;;;24.65;53.61;101464.59;2096664;28;4019;-75
2021/06/06 02:11:12;;;;;;;;;;;;;;;24.65;53.63;101478.09;2097210;28;3857;-74
2021/06/06 02:12:14;;;;;;;;;;;;;;;24.65;53.53;101472.38;2096695;28;3861;-75
2021/06/06 02:13:15;;;;;;;;;;;;;;;24.66;53.46;101474.00;2096730;28;3992;-74
2021/06/06 02:14:18;;;;;;;;;;;;;;;24.65;53.55;101470.31;2097055;28;3990;-74
2021/06/06 02:15:19;;;;;;;;;;;;;;;24.65;53.47;101467.47;2096106;28;6133;-74
2021/06/06 02:16:21;;;;;;;;;;;;;;;24.65;53.51;101478.09;2096750;28;3912;-74
2021/06/06 02:17:28;;;;;;;;;;;;;;;24.65;53.47;101470.31;2096443;28;4004;-74
2021/06/06 02:18:29;;;;;;;;;;;;;;;24.65;53.50;101478.09;2096914;28;4037;-74
2021/06/06 02:19:31;;;;;;;;;;;;;;;24.65;53.48;101467.47;2095774;28;4065;-74
2021/06/06 02:20:32;;;;;;;;;;;;;;;24.65;53.49;101473.19;2096862;28;4021;-75
2021/06/06 02:21:33;;;;;;;;;;;;;;;24.65;53.43;101478.09;2097519;28;3804;-75
2021/06/06 02:22:34;;;;;;;;;;;;;;;24.65;53.46;101472.38;2095908;28;4004;-75
2021/06/06 02:23:36;;;;;;;;;;;;;;;24.65;53.43;101470.31;2096153;28;3871;-75
2021/06/06 02:24:37;;;;;;;;;;;;;;;24.66;53.45;101471.97;2097401;28;3992;-77
2021/06/06 02:25:38;;;;;;;;;;;;;;;24.66;53.41;101471.16;2096083;28;3998;-79
2021/06/06 02:26:39;;;;;;;;;;;;;;;24.64;53.53;101471.50;2097037;28;3836;-78
2021/06/06 02:27:40;;;;;;;;;;;;;;;24.65;53.43;101476.06;2097340;28;4085;-78
2021/06/06 02:28:42;;;;;;;;;;;;;;;24.66;53.47;101468.28;2096194;28;3828;-79
2021/06/06 02:29:43;;;;;;;;;;;;;;;24.65;53.40;101473.19;2096771;28;4191;-79
2021/06/06 02:30:44;;;;;;;;;;;;;;;24.65;53.37;101472.38;2096659;28;3866;-79
2021/06/06 02:31:45;;;;;;;;;;;;;;;24.65;53.40;101478.09;2096022;28;4005;-79
2021/06/06 02:32:47;;;;;;;;;;;;;;;24.66;53.32;101474.00;2097348;28;3860;-79
2021/06/06 02:33:48;;;;;;;;;;;;;;;24.65;53.40;101478.09;2097030;28;3939;-74
2021/06/06 02:34:49;;;;;;;;;;;;;;;24.65;53.35;101475.22;2097452;28;3958;-74
2021/06/06 02:35:51;;;;;;;;;;;;;;;24.65;53.27;101481.78;2097263;28;5129;-75
2021/06/06 02:36:52;;;;;;;;;;;;;;;24.65;53.23;101472.38;2096979;28;4170;-75
2021/06/06 02:37:53;;;;;;;;;;;;;;;24.65;53.26;101478.09;2096089;28;5196;-74
2021/06/06 02:38:55;;;;;;;;;;;;;;;24.64;53.24;101476.41;2097426;28;3833;-74
2021/06/06 02:39:56;;;;;;;;;;;;;;;24.65;53.25;101476.06;2097014;28;3992;-75
2021/06/06 02:40:57;;;;;;;;;;;;;;;24.64;53.22;101471.50;2097584;28;4086;-75
2021/06/06 02:41:58;;;;;;;;;;;;;;;24.65;53.35;101478.91;2097766;28;5140;-75
2021/06/06 02:43:00;;;;;;;;;;;;;;;24.64;53.17;101471.50;2096760;28;4017;-76
2021/06/06 02:44:01;;;;;;;;;;;;;;;24.64;53.25;101470.69;2097668;28;4013;-77
2021/06/06 02:45:03;;;;;;;;;;;;;;;24.65;53.21;101475.22;2094407;28;3988;-76
2021/06/06 02:46:04;;;;;;;;;;;;;;;24.64;53.22;101471.50;2096944;28;3848;-76
2021/06/06 02:47:05;;;;;;;;;;;;;;;24.64;53.22;101477.22;2097202;28;4014;-75
2021/06/06 02:48:06;;;;;;;;;;;;;;;24.65;53.28;101475.22;2098039;28;3856;-76
2021/06/06 02:49:08;;;;;;;;;;;;;;;24.65;53.26;101466.63;2096425;28;4046;-76
2021/06/06 02:50:09;;;;;;;;;;;;;;;24.64;53.30;101474.38;2096379;28;4006;-75
2021/06/06 02:51:10;;;;;;;;;;;;;;;24.65;53.26;101475.22;2095555;28;3991;-76
2021/06/06 02:52:11;;;;;;;;;;;;;;;24.65;53.27;101475.22;2095243;28;3893;-74
2021/06/06 02:53:13;;;;;;;;;;;;;;;24.64;53.27;101473.53;2095306;28;4161;-74
2021/06/06 02:54:14;;;;;;;;;;;;;;;24.65;53.25;101475.22;2096796;28;4060;-74
2021/06/06 02:55:15;;;;;;;;;;;;;;;24.65;53.18;101475.22;2097225;28;4008;-76
2021/06/06 02:56:16;;;;;;;;;;;;;;;24.64;53.15;101471.50;2096757;28;4077;-77
2021/06/06 02:57:18;;;;;;;;;;;;;;;24.65;53.28;101478.09;2096047;28;4099;-76
2021/06/06 02:58:19;;;;;;;;;;;;;;;24.62;53.36;101470.22;2086512;28;4014;-77
2021/06/06 02:59:20;;;;;;;;;;;;;;;24.64;53.25;101474.38;2085174;28;4023;-77
2021/06/06 03:00:21;;;;;;;;;;;;;;;24.64;53.29;101473.53;2094809;28;3951;-76
2021/06/06 03:01:22;;;;;;;;;;;;;;;24.64;53.24;101476.41;2096856;28;3919;-76
2021/06/06 03:02:24;;;;;;;;;;;;;;;24.64;53.18;101476.41;2095058;28;4007;-76
2021/06/06 03:03:25;;;;;;;;;;;;;;;24.64;53.17;101473.53;2097191;28;3975;-76
2021/06/06 03:04:26;;;;;;;;;;;;;;;24.64;53.24;101474.38;2095129;28;3980;-76
2021/06/06 03:05:27;;;;;;;;;;;;;;;24.64;53.24;101476.41;2097616;28;3981;-77
2021/06/06 03:06:29;;;;;;;;;;;;;;;24.64;53.25;101473.53;2095325;28;5235;-77
2021/06/06 03:07:30;;;;;;;;;;;;;;;24.64;53.19;101470.69;2096129;28;3973;-76
2021/06/06 03:08:32;;;;;;;;;;;;;;;24.64;53.27;101476.41;2096444;28;4065;-76
2021/06/06 03:09:33;;;;;;;;;;;;;;;24.63;53.16;101471.88;2096753;28;3869;-75
2021/06/06 03:10:34;;;;;;;;;;;;;;;24.64;53.28;101473.53;2087839;28;3856;-80
2021/06/06 03:11:35;;;;;;;;;;;;;;;24.64;53.18;101479.25;2086821;28;3983;-80
2021/06/06 03:12:37;;;;;;;;;;;;;;;24.63;53.19;101469.84;2095948;28;4062;-79
2021/06/06 03:13:38;;;;;;;;;;;;;;;24.64;53.11;101473.53;2095968;28;5285;-75
2021/06/06 03:14:39;;;;;;;;;;;;;;;24.64;53.21;101473.53;2096837;28;4076;-74
2021/06/06 03:15:40;;;;;;;;;;;;;;;24.64;53.17;101471.50;2095889;28;5183;-74
2021/06/06 03:16:41;;;;;;;;;;;;;;;24.63;53.18;101471.88;2096244;28;4060;-72
2021/06/06 03:17:43;;;;;;;;;;;;;;;24.63;53.22;101472.72;2096970;28;3907;-75
2021/06/06 03:18:44;;;;;;;;;;;;;;;24.64;53.19;101473.53;2096285;28;3917;-73
2021/06/06 03:19:45;;;;;;;;;;;;;;;24.63;53.23;101477.59;2097148;28;4004;-74
2021/06/06 03:20:47;;;;;;;;;;;;;;;24.63;53.21;101469.84;2096270;28;4004;-74
2021/06/06 03:21:48;;;;;;;;;;;;;;;24.64;53.13;101476.41;2095582;28;4092;-75
2021/06/06 03:22:49;;;;;;;;;;;;;;;24.63;53.16;101472.72;2094811;28;3997;-75
2021/06/06 03:23:50;;;;;;;;;;;;;;;24.64;53.22;101473.53;2097108;28;5039;-73
2021/06/06 03:24:52;;;;;;;;;;;;;;;24.64;53.21;101482.13;2096847;28;4048;-73
2021/06/06 03:25:53;;;;;;;;;;;;;;;24.64;53.25;101479.25;2095789;28;3886;-75
2021/06/06 03:26:54;;;;;;;;;;;;;;;24.64;53.13;101473.53;2096079;28;4005;-74
2021/06/06 03:27:55;;;;;;;;;;;;;;;24.63;53.11;101477.59;2087224;28;3938;-75
2021/06/06 03:28:57;;;;;;;;;;;;;;;24.63;53.12;101478.44;2087960;28;3804;-74
2021/06/06 03:29:59;;;;;;;;;;;;;;;24.63;53.10;101480.47;2095742;28;3765;-74
2021/06/06 03:31:00;;;;;;;;;;;;;;;24.62;53.04;101475.94;2095052;28;3995;-74
2021/06/06 03:32:01;;;;;;;;;;;;;;;24.64;53.12;101479.25;2095705;28;3866;-75
2021/06/06 03:33:02;;;;;;;;;;;;;;;24.64;53.10;101484.97;2096056;28;4012;-74
2021/06/06 03:34:04;;;;;;;;;;;;;;;24.63;53.01;101480.47;2096230;28;3878;-73
2021/06/06 03:35:05;;;;;;;;;;;;;;;24.62;53.08;101476.78;2097222;28;3988;-74
2021/06/06 03:36:06;;;;;;;;;;;;;;;24.63;53.07;101486.19;2096001;28;3976;-78
2021/06/06 03:37:07;;;;;;;;;;;;;;;24.64;52.95;101490.72;2097031;28;3994;-79
2021/06/06 03:38:09;;;;;;;;;;;;;;;24.63;52.99;101480.47;2084233;28;4189;-79
2021/06/06 03:39:10;;;;;;;;;;;;;;;24.63;52.97;101487.00;2077204;28;3932;-79
2021/06/06 03:40:11;;;;;;;;;;;;;;;24.63;52.96;101477.59;2087630;28;4025;-78
2021/06/06 03:41:12;;;;;;;;;;;;;;;24.63;52.98;101480.47;2096118;28;4026;-81
2021/06/06 03:42:14;;;;;;;;;;;;;;;24.63;52.94;101481.28;2087864;28;3980;-82
2021/06/06 03:43:15;;;;;;;;;;;;;;;24.62;52.94;101482.50;2086407;28;4073;-82
2021/06/06 03:44:16;;;;;;;;;;;;;;;24.63;52.79;101486.19;2096378;28;4015;-79
2021/06/06 03:45:17;;;;;;;;;;;;;;;24.63;53.02;101487.00;2094708;28;3885;-80
2021/06/06 03:46:19;;;;;;;;;;;;;;;24.63;52.95;101484.16;2096729;28;3976;-79
2021/06/06 03:47:20;;;;;;;;;;;;;;;24.64;52.90;101487.84;2095271;28;3833;-80
2021/06/06 03:48:21;;;;;;;;;;;;;;;24.63;52.78;101481.28;2096831;28;4023;-79
2021/06/06 03:49:24;;;;;;;;;;;;;;;24.64;52.71;101490.72;2096315;28;4021;-79
2021/06/06 03:50:25;;;;;;;;;;;;;;;24.63;52.88;101480.47;2096640;28;4822;-79
2021/06/06 03:51:26;;;;;;;;;;;;;;;24.63;52.90;101478.44;2096055;28;3824;-80
2021/06/06 03:52:33;;;;;;;;;;;;;;;24.63;52.89;101483.34;2095258;28;3999;-81
2021/06/06 03:53:36;;;;;;;;;;;;;;;24.63;52.73;101489.88;2096842;28;5153;-81
2021/06/06 03:54:37;;;;;;;;;;;;;;;24.64;52.76;101487.84;2095893;28;4084;-83
2021/06/06 03:55:38;;;;;;;;;;;;;;;24.63;52.79;101483.34;2096443;28;4006;-83
2021/06/06 03:56:40;;;;;;;;;;;;;;;24.63;52.60;101487.00;2096185;28;3997;-83
2021/06/06 03:57:41;;;;;;;;;;;;;;;24.63;52.79;101487.00;2095520;28;3946;-83
2021/06/06 03:58:42;;;;;;;;;;;;;;;24.63;52.73;101483.34;2096562;28;3977;-83
2021/06/06 03:59:43;;;;;;;;;;;;;;;24.63;52.70;101483.34;2096369;28;3938;-83
2021/06/06 04:00:45;;;;;;;;;;;;;;;24.63;52.70;101484.16;2094155;28;4035;-84
2021/06/06 04:01:46;;;;;;;;;;;;;;;24.63;52.78;101483.34;2095751;28;4060;-82
2021/06/06 04:02:48;;;;;;;;;;;;;;;24.63;52.67;101491.91;2096339;28;3810;-82
2021/06/06 04:03:50;;;;;;;;;;;;;;;24.63;52.67;101494.78;2097038;28;3770;-75
2021/06/06 04:04:51;;;;;;;;;;;;;;;24.62;52.77;101482.50;2096639;28;5143;-75
2021/06/06 04:05:52;;;;;;;;;;;;;;;24.63;52.75;101489.06;2099180;28;3985;-75
2021/06/06 04:06:54;;;;;;;;;;;;;;;24.63;52.72;101491.91;2097809;28;5248;-75
2021/06/06 04:07:55;;;;;;;;;;;;;;;24.63;52.76;101484.16;2097507;28;3937;-74
2021/06/06 04:08:57;;;;;;;;;;;;;;;24.63;52.68;101489.06;2098648;28;4002;-75
2021/06/06 04:10:00;;;;;;;;;;;;;;;24.62;52.68;101493.13;2097915;28;4026;-75
2021/06/06 04:11:01;;;;;;;;;;;;;;;24.62;52.72;101487.41;2097798;28;4004;-75
2021/06/06 04:12:02;;;;;;;;;;;;;;;24.62;52.74;101490.25;2097629;28;3990;-75
2021/06/06 04:13:04;;;;;;;;;;;;;;;24.62;52.73;101487.41;2097205;28;3846;-75
2021/06/06 04:14:05;;;;;;;;;;;;;;;24.62;52.67;101488.22;2097779;28;4002;-76
2021/06/06 04:15:06;;;;;;;;;;;;;;;24.63;52.79;101484.16;2097310;28;5145;-76
2021/06/06 04:16:07;;;;;;;;;;;;;;;24.63;52.78;101489.06;2097437;28;3991;-76
2021/06/06 04:17:09;;;;;;;;;;;;;;;24.63;52.78;101489.06;2098423;28;3763;-75
2021/06/06 04:18:10;;;;;;;;;;;;;;;24.62;52.78;101491.09;2097995;28;3989;-75
2021/06/06 04:19:11;;;;;;;;;;;;;;;24.62;52.65;101499.66;2098229;28;5127;-76
2021/06/06 04:20:12;;;;;;;;;;;;;;;24.61;52.81;101486.53;2097576;28;4040;-76
2021/06/06 04:21:14;;;;;;;;;;;;;;;24.62;52.68;101484.53;2097482;28;4001;-76
2021/06/06 04:22:15;;;;;;;;;;;;;;;24.62;52.78;101493.13;2097738;28;3877;-77
2021/06/06 04:23:16;;;;;;;;;;;;;;;24.62;52.81;101487.41;2098179;28;3859;-76
2021/06/06 04:24:17;;;;;;;;;;;;;;;24.62;52.71;101493.13;2096884;28;4001;-77
2021/06/06 04:25:19;;;;;;;;;;;;;;;24.63;52.80;101491.91;2095512;28;3860;-76
2021/06/06 04:26:20;;;;;;;;;;;;;;;24.62;52.86;101487.41;2098067;28;3860;-76
2021/06/06 04:27:21;;;;;;;;;;;;;;;24.62;52.82;101493.13;2097537;28;3929;-76
2021/06/06 04:28:22;;;;;;;;;;;;;;;24.61;52.83;101492.25;2097164;28;3867;-76
2021/06/06 04:29:24;;;;;;;;;;;;;;;24.62;52.81;101487.41;2097995;28;4046;-76
2021/06/06 04:30:25;;;;;;;;;;;;;;;24.62;52.88;101487.41;2096332;28;4411;-75
2021/06/06 04:31:26;;;;;;;;;;;;;;;24.62;52.83;101491.09;2098945;28;3839;-76
2021/06/06 04:32:27;;;;;;;;;;;;;;;24.63;52.88;101489.06;2097376;28;4017;-75
2021/06/06 04:33:29;;;;;;;;;;;;;;;24.63;52.82;101486.19;2098578;28;4142;-76
2021/06/06 04:34:30;;;;;;;;;;;;;;;24.63;52.88;101494.78;2097305;28;4018;-76
2021/06/06 04:35:31;;;;;;;;;;;;;;;24.62;52.82;101493.13;2098185;28;3977;-76
2021/06/06 04:36:32;;;;;;;;;;;;;;;24.62;52.80;101493.13;2096680;28;4027;-75
2021/06/06 04:37:33;;;;;;;;;;;;;;;24.61;52.77;101492.25;2096584;28;3836;-75
2021/06/06 04:38:35;;;;;;;;;;;;;;;24.63;52.84;101486.19;2097724;28;3868;-75
2021/06/06 04:39:36;;;;;;;;;;;;;;;24.62;52.84;101484.53;2098207;28;4017;-75
2021/06/06 04:40:38;;;;;;;;;;;;;;;24.62;52.85;101491.09;2096726;28;3998;-75
2021/06/06 04:41:39;;;;;;;;;;;;;;;24.61;52.86;101489.41;2097550;28;3832;-75
2021/06/06 04:42:40;;;;;;;;;;;;;;;24.62;52.63;101493.13;2097981;28;3972;-75
2021/06/06 04:43:41;;;;;;;;;;;;;;;24.63;52.82;101491.91;2096911;28;3982;-75
2021/06/06 04:44:43;;;;;;;;;;;;;;;24.62;52.86;101493.94;2097297;28;3797;-76
2021/06/06 04:45:44;;;;;;;;;;;;;;;24.62;52.80;101491.09;2097418;28;4040;-76
2021/06/06 04:46:45;;;;;;;;;;;;;;;24.62;52.76;101490.25;2096357;28;3723;-76
2021/06/06 04:47:46;;;;;;;;;;;;;;;24.62;52.91;101493.13;2097537;28;3777;-76
2021/06/06 04:48:48;;;;;;;;;;;;;;;24.63;52.84;101489.06;2098561;28;3946;-76
2021/06/06 04:49:49;;;;;;;;;;;;;;;24.62;52.82;101490.25;2097235;28;4094;-76
2021/06/06 04:50:50;;;;;;;;;;;;;;;24.62;52.88;101493.13;2097241;28;3882;-73
2021/06/06 04:51:51;;;;;;;;;;;;;;;24.61;52.74;101486.53;2097088;28;4030;-75
2021/06/06 04:52:53;;;;;;;;;;;;;;;24.62;52.81;101493.94;2097159;28;4169;-75
2021/06/06 04:53:54;;;;;;;;;;;;;;;24.63;52.86;101491.91;2097490;28;3872;-76
2021/06/06 04:54:55;;;;;;;;;;;;;;;24.62;52.71;101491.09;2098610;28;4014;-76
2021/06/06 04:55:58;;;;;;;;;;;;;;;24.62;52.65;101493.94;2098124;28;3855;-78
2021/06/06 04:56:59;;;;;;;;;;;;;;;24.63;52.80;101489.06;2097808;28;4009;-75
2021/06/06 04:58:01;;;;;;;;;;;;;;;24.61;52.80;101489.41;2097112;28;3995;-74
2021/06/06 04:59:02;;;;;;;;;;;;;;;24.62;52.82;101484.53;2098688;28;3905;-80
2021/06/06 05:00:04;;;;;;;;;;;;;;;24.62;52.83;101487.41;2097427;28;4073;-82
2021/06/06 05:01:05;;;;;;;;;;;;;;;24.62;52.76;101488.22;2094711;28;5096;-82
2021/06/06 05:02:06;;;;;;;;;;;;;;;24.62;52.76;101493.13;2096836;28;3951;-81
2021/06/06 05:03:07;;;;;;;;;;;;;;;24.62;52.74;101491.09;2097307;28;3890;-75
2021/06/06 05:04:09;;;;;;;;;;;;;;;24.62;52.75;101493.13;2098030;28;4011;-76
2021/06/06 05:05:10;;;;;;;;;;;;;;;24.61;52.75;101492.25;2098857;28;4017;-78
2021/06/06 05:06:11;;;;;;;;;;;;;;;24.62;52.93;101493.94;2096434;28;4054;-74
2021/06/06 05:07:12;;;;;;;;;;;;;;;24.63;52.87;101489.88;2097502;28;4165;-74
2021/06/06 05:08:14;;;;;;;;;;;;;;;24.63;52.88;101491.91;2096997;28;4070;-74
2021/06/06 05:09:15;;;;;;;;;;;;;;;24.62;52.92;101498.84;2097086;28;3907;-74
2021/06/06 05:10:16;;;;;;;;;;;;;;;24.64;52.92;101502.16;2097311;28;3869;-74
2021/06/06 05:11:18;;;;;;;;;;;;;;;24.63;53.10;101494.78;2097497;28;3995;-74
2021/06/06 05:12:19;;;;;;;;;;;;;;;24.63;53.08;101503.34;2098224;28;4031;-74
2021/06/06 05:13:20;;;;;;;;;;;;;;;24.63;53.14;101500.50;2097536;28;5133;-76
2021/06/06 05:14:21;;;;;;;;;;;;;;;24.63;53.25;101500.50;2097193;28;4014;-76
2021/06/06 05:15:23;;;;;;;;;;;;;;;24.63;53.27;101494.78;2097779;28;4032;-76
2021/06/06 05:16:24;;;;;;;;;;;;;;;24.63;53.21;101503.34;2095328;28;4039;-76
2021/06/06 05:17:25;;;;;;;;;;;;;;;24.63;53.26;101504.19;2097561;28;4013;-76
2021/06/06 05:18:26;;;;;;;;;;;;;;;24.63;53.12;101504.19;2097058;28;3828;-76
2021/06/06 05:19:28;;;;;;;;;;;;;;;24.63;53.20;101503.34;2097136;28;5001;-76
2021/06/06 05:20:29;;;;;;;;;;;;;;;24.62;53.21;101504.56;2097919;28;3852;-76